Airfield :
LOGIN :

Register | Disclaimer

   EN    FR    IT 

 










Legend :    VFR   Marginal VFR   IFR   Intensive IFR   Very Intensive IFR
Visi :
Ceiling :
>= 8 km
>= 3000ft
5 to 8 km
1000 to 3000 ft
1500m to 5 km
500 to 1000 ft
800 to 1500m
200 to 500 ft
< 800m
< 200 ft
Symbols :   Thunderstorms  Fog  Heavy snow  Heavy precipitations  Wind > 20 kt
SIGMETs :     Misc.  Thunderstorms  Icing  Turbulence  Mountain Waves  Volcanic Ashes







- Airport Elevation : 202 ft
- IATA code : LGW
- Download approach charts


EGKK - London Gatwick

CURRENT METAR :
  • 191150Z 05011KT 020V100 CAVOK 21/07 Q1028

EXPIRED METARs :
  • 191120Z 05011KT 020V100 CAVOK 20/08 Q1028
  • 191050Z 03007KT 350V070 CAVOK 20/09 Q1028
  • 191020Z 06007KT 020V100 CAVOK 19/09 Q1028
  • 190950Z 04008KT 010V110 CAVOK 19/08 Q1028
  • 190920Z 02006KT 350V060 CAVOK 17/08 Q1027

TAF TAF EGKK
Valid from the 19 at 12:00 until the 20 at 18:00 UTC


191102Z 1912/2018 05008KT CAVOK
BECMG 2000/2003 7000
BECMG 2006/2009 CAVOK
No reported NOTAMs for that airfield.



MET'MAP, your aeronautical weather chart ! - Copyright ORBIFLY December 2007 - Disclaimer

ORBIFLY MET'MAP TEAM :

Programming & Development : Alexandra Zaïnal
Concept & Development : Baudouin d'Aumeries
Co-Development & Prog : Marc-Olivier Méhu
Technical & hardware support : Manuel Goepfert

Contact : metmap@orbifly.com




SOURCES & CREDITS :

   NOAA